TimeCDT,TemperatureF,Dew PointF,Humidity,Sea Level PressureIn,VisibilityMPH,Wind Direction,Wind SpeedMPH,Gust SpeedMPH,PrecipitationIn,Events,Conditions,WindDirDegrees,DateUTC
12:52 AM,51.1,45.0,80,29.91,10.0,West,8.1,-,N/A,,Clear,280,2012-10-15 05:52:00
1:52 AM,48.9,45.0,86,29.92,10.0,West,6.9,-,N/A,,Clear,260,2012-10-15 06:52:00
2:52 AM,46.9,44.1,90,29.92,10.0,West,6.9,-,N/A,,Clear,260,2012-10-15 07:52:00
3:52 AM,46.9,44.1,90,29.92,8.0,Calm,Calm,-,N/A,,Clear,0,2012-10-15 08:52:00
4:52 AM,43.0,41.0,93,29.93,8.0,West,5.8,-,N/A,,Clear,280,2012-10-15 09:52:00
5:52 AM,44.1,42.1,93,29.94,9.0,West,6.9,-,N/A,,Clear,260,2012-10-15 10:52:00
6:52 AM,44.1,42.1,93,29.96,10.0,West,5.8,-,N/A,,Clear,270,2012-10-15 11:52:00
7:52 AM,45.0,43.0,93,29.97,8.0,WSW,4.6,-,N/A,,Clear,250,2012-10-15 12:52:00
8:52 AM,50.0,45.0,83,29.99,10.0,WNW,6.9,-,N/A,,Clear,300,2012-10-15 13:52:00
9:52 AM,55.0,45.0,69,30.00,10.0,West,8.1,-,N/A,,Clear,270,2012-10-15 14:52:00
10:52 AM,59.0,43.0,55,30.01,10.0,WNW,10.4,-,N/A,,Clear,300,2012-10-15 15:52:00
11:52 AM,61.0,39.9,46,30.00,10.0,NW,6.9,-,N/A,,Clear,320,2012-10-15 16:52:00
1:52 PM,64.9,42.1,43,29.98,10.0,West,10.4,-,N/A,,Clear,280,2012-10-15 18:52:00
2:52 PM,64.0,43.0,46,29.97,10.0,SSW,5.8,-,N/A,,Clear,210,2012-10-15 19:52:00
3:52 PM,64.9,43.0,45,29.96,10.0,WSW,4.6,-,N/A,,Clear,250,2012-10-15 20:52:00
4:52 PM,64.9,42.1,43,29.96,10.0,WNW,3.5,-,N/A,,Clear,290,2012-10-15 21:52:00
5:52 PM,63.0,44.1,50,29.95,10.0,Calm,Calm,-,N/A,,Clear,0,2012-10-15 22:52:00
6:52 PM,55.0,45.0,69,29.95,10.0,Calm,Calm,-,N/A,,Clear,0,2012-10-15 23:52:00
7:52 PM,52.0,45.0,77,29.96,10.0,Calm,Calm,-,N/A,,Clear,0,2012-10-16 00:52:00
8:52 PM,48.9,45.0,86,29.96,10.0,Calm,Calm,-,N/A,,Clear,0,2012-10-16 01:52:00
9:52 PM,48.0,45.0,89,29.97,10.0,Calm,Calm,-,N/A,,Clear,0,2012-10-16 02:52:00
10:52 PM,48.0,45.0,89,29.96,10.0,Calm,Calm,-,N/A,,Clear,0,2012-10-16 03:52:00
11:52 PM,48.0,44.1,86,29.96,10.0,SE,3.5,-,N/A,,Clear,130,2012-10-16 04:52:00